Time;durP1;ratioP1;P1;durP2;ratioP2;P2;SDS_P1;SDS_P2;PMS_P1;PMS_P2;Temp;Humidity;BMP_temperature;BMP_pressure;BME280_temperature;BME280_humidity;BME280_pressure;Samples;Min_cycle;Max_cycle;Signal;HPM_P1;HPM_P2
2023/12/25 00:00:09;;;;;;;1.33;0.73;;;22.80;48.40;;;;;;5043940;28;20051;-39
2023/12/25 00:02:35;;;;;;;1.13;0.57;;;22.80;48.40;;;;;;5046973;28;20113;-38
2023/12/25 00:05:01;;;;;;;1.63;0.70;;;22.80;48.40;;;;;;5043416;28;21792;-38
2023/12/25 00:07:27;;;;;;;1.40;0.80;;;22.70;48.40;;;;;;5048655;28;20081;-38
2023/12/25 00:09:53;;;;;;;1.23;0.70;;;22.70;48.50;;;;;;5040070;28;20037;-38
2023/12/25 00:12:20;;;;;;;1.67;0.70;;;22.80;48.70;;;;;;5044362;28;20033;-38
2023/12/25 00:14:46;;;;;;;1.15;0.63;;;22.90;48.80;;;;;;5042105;28;20027;-38
2023/12/25 00:17:14;;;;;;;0.90;0.70;;;22.90;48.20;;;;;;5032343;28;20044;-38
2023/12/25 00:19:41;;;;;;;0.80;0.50;;;22.80;48.00;;;;;;5039775;28;20157;-38
2023/12/25 00:22:07;;;;;;;1.20;0.70;;;22.80;48.00;;;;;;5046018;28;20546;-38
2023/12/25 00:24:33;;;;;;;0.85;0.57;;;22.80;48.20;;;;;;5046158;28;20056;-38
2023/12/25 00:26:59;;;;;;;0.75;0.50;;;22.80;48.40;;;;;;5042951;28;20038;-38
2023/12/25 00:29:26;;;;;;;1.00;0.60;;;22.80;48.40;;;;;;5041420;28;20060;-38
2023/12/25 00:31:52;;;;;;;0.70;0.50;;;22.80;48.40;;;;;;5064701;28;20119;-38
2023/12/25 00:34:18;;;;;;;1.63;0.77;;;22.80;48.50;;;;;;5107553;28;20024;-38
2023/12/25 00:36:45;;;;;;;0.77;0.57;;;22.80;48.50;;;;;;5093592;28;20024;-38
2023/12/25 00:39:13;;;;;;;0.70;0.50;;;22.70;48.40;;;;;;5111170;28;20735;-39
2023/12/25 00:41:39;;;;;;;2.28;0.85;;;22.70;48.40;;;;;;5118383;28;20027;-38
2023/12/25 00:44:05;;;;;;;1.63;0.68;;;22.70;48.60;;;;;;5111561;28;20032;-39
2023/12/25 00:46:32;;;;;;;1.13;0.73;;;22.70;48.80;;;;;;5111312;27;20028;-38
2023/12/25 00:48:58;;;;;;;1.13;0.63;;;22.70;48.80;;;;;;5109044;28;20539;-40
2023/12/25 00:51:25;;;;;;;1.17;0.60;;;22.70;48.50;;;;;;5114572;28;20031;-39
2023/12/25 00:53:51;;;;;;;1.02;0.70;;;22.80;48.50;;;;;;5108784;27;20066;-39
2023/12/25 00:56:17;;;;;;;0.77;0.60;;;22.70;48.50;;;;;;5109819;28;20130;-38
2023/12/25 00:58:44;;;;;;;1.00;0.50;;;22.70;48.90;;;;;;5112019;28;20061;-38
2023/12/25 01:01:10;;;;;;;1.35;0.68;;;22.70;49.00;;;;;;5112442;28;20102;-39
2023/12/25 01:03:36;;;;;;;1.08;0.70;;;22.80;48.90;;;;;;5108700;28;20061;-39
2023/12/25 01:06:03;;;;;;;2.07;0.60;;;22.80;48.40;;;;;;5112833;28;20062;-38
2023/12/25 01:08:30;;;;;;;1.53;0.73;;;22.80;48.30;;;;;;5110102;28;20465;-38
2023/12/25 01:10:56;;;;;;;1.35;0.73;;;22.80;48.30;;;;;;5107126;28;20024;-39
2023/12/25 01:13:23;;;;;;;0.88;0.60;;;22.80;48.40;;;;;;5107251;28;20020;-39
2023/12/25 01:15:49;;;;;;;2.50;0.68;;;22.80;48.50;;;;;;5107829;28;20174;-38
2023/12/25 01:18:15;;;;;;;1.80;0.70;;;22.80;48.80;;;;;;5110526;28;20038;-39
2023/12/25 01:20:43;;;;;;;0.90;0.70;;;22.80;48.90;;;;;;5112108;28;20032;-39
2023/12/25 01:23:09;;;;;;;0.95;0.60;;;22.80;48.60;;;;;;5109992;28;20085;-38
2023/12/25 01:25:35;;;;;;;1.27;0.65;;;22.80;48.40;;;;;;5114185;28;21689;-38
2023/12/25 01:28:02;;;;;;;1.55;0.70;;;22.80;48.40;;;;;;5115530;28;20027;-39
2023/12/25 01:30:28;;;;;;;1.23;0.57;;;22.80;48.60;;;;;;5112833;28;20027;-38
2023/12/25 01:32:54;;;;;;;1.27;0.47;;;22.80;48.60;;;;;;5106802;28;20027;-38
2023/12/25 01:35:20;;;;;;;1.40;0.65;;;22.70;48.90;;;;;;5108700;28;20028;-38
2023/12/25 01:37:46;;;;;;;1.90;0.70;;;22.70;48.90;;;;;;5108992;28;20047;-39
2023/12/25 01:40:13;;;;;;;1.83;0.95;;;22.70;48.90;;;;;;5111451;28;20230;-38
2023/12/25 01:42:42;;;;;;;1.02;0.70;;;22.70;48.90;;;;;;5110933;28;20027;-38
2023/12/25 01:45:10;;;;;;;0.88;0.60;;;22.70;49.00;;;;;;5108877;28;20028;-38
2023/12/25 01:47:36;;;;;;;0.82;0.60;;;22.70;49.20;;;;;;5110036;28;20027;-39
2023/12/25 01:50:03;;;;;;;0.80;0.60;;;22.70;49.10;;;;;;5088594;28;20047;-39
2023/12/25 01:52:29;;;;;;;;;;;22.70;48.90;;;;;;5093929;28;20026;-39
2023/12/25 01:54:57;;;;;;;2.75;0.60;;;22.70;48.90;;;;;;5108086;28;19915;-39
2023/12/25 01:57:25;;;;;;;0.98;0.60;;;22.70;48.80;;;;;;5108970;28;20072;-39
2023/12/25 01:59:51;;;;;;;1.48;0.70;;;22.70;49.20;;;;;;5108941;28;20082;-39
2023/12/25 02:02:20;;;;;;;0.73;0.57;;;22.80;49.30;;;;;;5107886;28;20020;-39
2023/12/25 02:04:46;;;;;;;1.38;0.68;;;22.80;49.00;;;;;;5107884;28;20039;-38
2023/12/25 02:07:13;;;;;;;1.40;0.43;;;22.80;48.50;;;;;;5109463;28;20388;-38
2023/12/25 02:09:39;;;;;;;0.98;0.60;;;22.80;48.60;;;;;;5111815;28;20024;-39
2023/12/25 02:12:05;;;;;;;1.88;0.60;;;22.80;48.60;;;;;;5121361;27;20579;-39
2023/12/25 02:14:31;;;;;;;0.80;0.50;;;22.80;49.00;;;;;;5111034;28;20031;-38
2023/12/25 02:16:58;;;;;;;1.42;0.68;;;22.80;49.20;;;;;;5116775;28;20031;-39
2023/12/25 02:19:39;;;;;;;0.60;0.50;;;22.80;49.10;;;;;;5111638;28;20062;-39
2023/12/25 02:22:08;;;;;;;1.85;0.60;;;22.80;48.70;;;;;;5125954;27;20027;-39
2023/12/25 02:24:36;;;;;;;0.75;0.52;;;22.80;48.80;;;;;;5115875;28;20039;-39
2023/12/25 02:27:02;;;;;;;1.92;0.60;;;22.80;49.00;;;;;;5113493;28;20073;-39
2023/12/25 02:29:29;;;;;;;1.58;0.60;;;22.70;49.20;;;;;;5093063;28;20101;-39
2023/12/25 02:31:55;;;;;;;2.35;0.70;;;22.70;49.30;;;;;;5111785;28;20027;-39
2023/12/25 02:34:21;;;;;;;1.75;0.70;;;22.70;49.20;;;;;;5096029;28;20055;-39
2023/12/25 02:36:47;;;;;;;0.82;0.50;;;22.70;49.20;;;;;;5117181;28;20038;-38
2023/12/25 02:39:14;;;;;;;1.08;0.60;;;22.70;49.10;;;;;;5114174;28;20043;-40
2023/12/25 02:41:40;;;;;;;1.15;0.73;;;22.70;49.10;;;;;;5118675;28;20032;-39
2023/12/25 02:44:06;;;;;;;1.52;0.68;;;22.70;49.70;;;;;;5114694;28;20060;-39
2023/12/25 02:46:32;;;;;;;1.27;0.70;;;22.70;49.80;;;;;;5114903;28;20028;-39
2023/12/25 02:48:58;;;;;;;1.08;0.60;;;22.70;49.40;;;;;;5121529;28;20051;-39
2023/12/25 02:51:24;;;;;;;1.63;0.70;;;22.70;49.10;;;;;;5114739;28;20032;-39
2023/12/25 02:53:51;;;;;;;0.80;0.40;;;22.70;49.40;;;;;;5115837;28;20036;-39
2023/12/25 02:56:17;;;;;;;1.70;0.52;;;22.70;49.90;;;;;;5119307;27;20023;-39
2023/12/25 02:58:43;;;;;;;1.05;0.63;;;22.80;49.90;;;;;;5108201;28;20065;-39
2023/12/25 03:01:09;;;;;;;2.25;0.70;;;22.80;48.90;;;;;;5117210;28;20036;-38
2023/12/25 03:03:35;;;;;;;1.38;0.70;;;22.80;48.90;;;;;;5112401;28;20095;-39
2023/12/25 03:06:01;;;;;;;2.05;0.93;;;22.80;48.90;;;;;;5111554;28;20032;-38
2023/12/25 03:08:27;;;;;;;2.13;1.00;;;22.80;49.10;;;;;;5098156;27;20608;-38
2023/12/25 03:10:55;;;;;;;0.50;0.50;;;22.70;49.20;;;;;;5118975;28;20031;-38
2023/12/25 03:13:21;;;;;;;0.90;0.68;;;22.70;49.60;;;;;;5115204;28;20495;-39
2023/12/25 03:15:47;;;;;;;0.90;0.60;;;22.70;49.70;;;;;;5104771;28;20032;-38
2023/12/25 03:18:13;;;;;;;0.82;0.60;;;22.80;49.60;;;;;;5107740;28;20040;-38
2023/12/25 03:20:39;;;;;;;1.15;0.73;;;22.80;49.20;;;;;;5100749;28;20091;-38
2023/12/25 03:23:05;;;;;;;1.90;0.60;;;22.70;49.00;;;;;;5105774;27;20035;-39
2023/12/25 03:25:31;;;;;;;1.15;0.60;;;22.70;49.30;;;;;;5108819;28;20032;-38
2023/12/25 03:27:57;;;;;;;1.73;0.60;;;22.70;49.30;;;;;;5107425;28;20058;-38
2023/12/25 03:30:24;;;;;;;1.30;0.60;;;22.70;49.50;;;;;;5109699;28;20032;-38
2023/12/25 03:32:50;;;;;;;1.00;0.60;;;22.70;49.60;;;;;;5118448;28;20052;-38
2023/12/25 03:35:16;;;;;;;1.15;0.68;;;22.70;49.60;;;;;;5114556;28;20035;-38
2023/12/25 03:37:42;;;;;;;1.15;0.45;;;22.70;49.70;;;;;;5113273;27;20041;-39
2023/12/25 03:40:09;;;;;;;0.70;0.60;;;22.70;49.70;;;;;;5111654;28;20039;-38
2023/12/25 03:42:35;;;;;;;1.47;0.67;;;22.70;49.70;;;;;;5108559;28;20128;-38
2023/12/25 03:45:01;;;;;;;1.08;0.63;;;22.70;49.60;;;;;;5114685;28;20772;-38
2023/12/25 03:47:28;;;;;;;0.47;0.40;;;22.70;49.30;;;;;;5111332;28;20080;-39
2023/12/25 03:49:54;;;;;;;1.13;0.68;;;22.70;49.60;;;;;;5107851;28;20067;-38
2023/12/25 03:52:21;;;;;;;0.98;0.63;;;22.80;49.40;;;;;;5107705;28;20384;-38
2023/12/25 03:54:47;;;;;;;1.17;0.60;;;22.80;48.90;;;;;;5112523;27;20024;-39
2023/12/25 03:57:13;;;;;;;2.10;0.70;;;22.80;48.90;;;;;;5119264;28;20079;-39
2023/12/25 03:59:39;;;;;;;1.17;0.70;;;22.80;49.00;;;;;;5119427;27;20035;-39
2023/12/25 04:02:05;;;;;;;1.10;0.60;;;22.70;49.10;;;;;;5108694;28;20031;-38
2023/12/25 04:04:31;;;;;;;2.15;0.70;;;22.70;49.40;;;;;;5108385;28;20064;-39
2023/12/25 04:06:58;;;;;;;1.02;0.70;;;22.70;49.50;;;;;;5108599;28;20028;-38
2023/12/25 04:09:24;;;;;;;0.70;0.50;;;22.80;49.60;;;;;;5109374;28;20087;-39
2023/12/25 04:11:50;;;;;;;0.98;0.60;;;22.80;49.20;;;;;;5117645;27;20024;-38
2023/12/25 04:14:16;;;;;;;1.25;0.60;;;22.80;49.20;;;;;;5115771;28;20032;-38
2023/12/25 04:16:42;;;;;;;0.73;0.55;;;22.70;49.40;;;;;;5111984;28;20111;-38
2023/12/25 04:19:08;;;;;;;1.67;0.90;;;22.70;49.40;;;;;;5114799;28;20043;-38
2023/12/25 04:21:35;;;;;;;0.70;0.60;;;22.70;49.50;;;;;;5111572;28;20055;-39
2023/12/25 04:24:01;;;;;;;2.22;0.90;;;22.70;49.60;;;;;;5118527;27;20035;-39
2023/12/25 04:26:27;;;;;;;1.35;0.60;;;22.70;49.60;;;;;;5112019;28;20105;-38
2023/12/25 04:28:53;;;;;;;0.82;0.70;;;22.60;49.70;;;;;;5112259;28;20049;-39
2023/12/25 04:31:40;;;;;;;1.00;0.70;;;22.70;49.70;;;;;;5115553;28;20035;-38
2023/12/25 04:34:06;;;;;;;2.17;0.73;;;22.70;49.70;;;;;;5051840;28;20169;-39
2023/12/25 04:36:32;;;;;;;1.25;0.70;;;22.70;49.60;;;;;;5055631;28;20152;-38
2023/12/25 04:38:58;;;;;;;1.98;0.60;;;22.70;49.80;;;;;;5059353;28;20041;-39
2023/12/25 04:41:24;;;;;;;0.95;0.70;;;22.70;49.80;;;;;;5055346;28;20139;-39
2023/12/25 04:43:50;;;;;;;1.30;0.70;;;22.70;50.10;;;;;;5054078;28;20037;-39
2023/12/25 04:46:17;;;;;;;2.10;0.77;;;22.70;49.70;;;;;;5057796;28;20033;-39
2023/12/25 04:48:43;;;;;;;1.42;0.70;;;22.80;49.30;;;;;;5058350;28;20075;-39
2023/12/25 04:51:10;;;;;;;1.55;0.80;;;22.70;49.10;;;;;;5059054;28;20152;-39
2023/12/25 04:53:36;;;;;;;0.88;0.60;;;22.80;49.20;;;;;;5057622;28;20143;-39
2023/12/25 04:56:03;;;;;;;1.25;0.60;;;22.70;49.30;;;;;;5052510;28;20036;-39
2023/12/25 04:58:29;;;;;;;1.33;0.60;;;22.80;49.60;;;;;;5053583;28;20037;-39
2023/12/25 05:00:55;;;;;;;0.75;0.50;;;22.80;49.60;;;;;;5057828;28;20037;-39
2023/12/25 05:03:21;;;;;;;2.03;0.70;;;22.80;49.60;;;;;;5049770;28;20052;-39
2023/12/25 05:05:50;;;;;;;1.20;0.80;;;22.80;49.50;;;;;;5053192;28;20045;-39
2023/12/25 05:08:18;;;;;;;1.45;0.77;;;22.70;49.40;;;;;;5048790;28;20274;-39
2023/12/25 05:10:44;;;;;;;0.77;0.50;;;22.70;49.40;;;;;;5068943;28;20031;-38
2023/12/25 05:13:10;;;;;;;1.55;0.90;;;22.70;49.60;;;;;;5107297;28;20036;-44
2023/12/25 05:15:36;;;;;;;1.30;0.68;;;22.70;49.60;;;;;;5112216;28;20406;-38
2023/12/25 05:18:03;;;;;;;0.65;0.43;;;22.60;49.60;;;;;;5112673;28;20809;-38
2023/12/25 05:20:29;;;;;;;1.63;0.60;;;22.60;49.70;;;;;;5111989;28;20062;-38
2023/12/25 05:22:55;;;;;;;0.75;0.60;;;22.60;49.80;;;;;;5107871;28;20043;-38
2023/12/25 05:25:21;;;;;;;0.80;0.55;;;22.60;49.70;;;;;;5108261;28;20028;-39
2023/12/25 05:27:47;;;;;;;2.00;0.60;;;22.70;49.70;;;;;;5106196;28;20081;-39
2023/12/25 05:30:13;;;;;;;1.00;0.60;;;22.70;49.60;;;;;;5109688;28;20028;-39
2023/12/25 05:32:39;;;;;;;1.88;0.90;;;22.70;49.70;;;;;;5112226;28;20028;-39
2023/12/25 05:35:06;;;;;;;1.65;0.70;;;22.60;49.70;;;;;;5115347;28;20039;-39
2023/12/25 05:37:32;;;;;;;1.48;0.75;;;22.60;49.70;;;;;;5110973;28;20028;-39
2023/12/25 05:39:59;;;;;;;4.33;0.63;;;22.60;49.80;;;;;;5106393;28;20503;-39
2023/12/25 05:42:25;;;;;;;0.70;0.60;;;22.70;49.60;;;;;;5117505;28;20038;-39
2023/12/25 05:44:51;;;;;;;1.10;0.70;;;22.70;49.40;;;;;;5112463;28;20744;-39
2023/12/25 05:47:17;;;;;;;1.30;0.60;;;22.80;49.50;;;;;;5118824;28;20024;-39
2023/12/25 05:49:43;;;;;;;1.08;0.73;;;22.80;49.40;;;;;;5114237;28;20121;-39
2023/12/25 05:52:10;;;;;;;2.03;0.50;;;22.80;49.30;;;;;;5114654;27;20087;-40
2023/12/25 05:54:36;;;;;;;1.03;0.60;;;22.70;49.40;;;;;;5114046;27;20114;-39
2023/12/25 05:57:02;;;;;;;1.58;0.60;;;22.70;49.50;;;;;;5122695;28;20027;-39
2023/12/25 05:59:28;;;;;;;1.10;0.57;;;22.70;49.60;;;;;;5116081;28;20156;-39
2023/12/25 06:01:55;;;;;;;0.60;0.50;;;22.70;49.70;;;;;;5111420;28;20085;-40
2023/12/25 06:04:21;;;;;;;1.42;0.70;;;22.60;49.60;;;;;;5115263;28;20032;-39
2023/12/25 06:06:47;;;;;;;0.77;0.63;;;22.60;49.70;;;;;;5120489;28;20714;-39
2023/12/25 06:09:13;;;;;;;1.17;0.60;;;22.60;49.70;;;;;;5117053;28;20035;-39
2023/12/25 06:11:39;;;;;;;1.13;0.57;;;22.60;49.70;;;;;;5113866;28;20058;-39
2023/12/25 06:14:06;;;;;;;1.10;0.50;;;22.70;49.70;;;;;;5118625;28;20434;-39
2023/12/25 06:16:32;;;;;;;1.45;0.50;;;22.70;49.70;;;;;;5111232;28;20028;-39
2023/12/25 06:18:59;;;;;;;0.73;0.43;;;22.70;49.80;;;;;;5115161;28;20040;-39
2023/12/25 06:21:25;;;;;;;0.60;0.60;;;22.60;50.00;;;;;;5118031;28;20027;-39
2023/12/25 06:23:52;;;;;;;1.30;0.60;;;22.60;49.90;;;;;;5118406;28;20036;-39
2023/12/25 06:26:18;;;;;;;;;;;22.60;49.90;;;;;;5111656;28;20019;-39
2023/12/25 06:28:44;;;;;;;2.25;0.70;;;22.60;49.80;;;;;;5100898;28;19930;-39
2023/12/25 06:31:12;;;;;;;1.27;0.57;;;22.60;50.00;;;;;;5116038;28;20023;-39
2023/12/25 06:33:38;;;;;;;0.90;0.50;;;22.70;50.00;;;;;;5115630;28;20578;-40
2023/12/25 06:36:05;;;;;;;0.73;0.43;;;22.70;49.80;;;;;;5110538;28;20043;-39
2023/12/25 06:38:31;;;;;;;2.15;0.50;;;22.70;49.40;;;;;;5110322;28;20044;-39
2023/12/25 06:40:57;;;;;;;1.00;0.50;;;22.70;49.30;;;;;;5117477;28;20035;-39
2023/12/25 06:43:23;;;;;;;0.98;0.60;;;22.70;49.60;;;;;;5116544;28;20027;-44
2023/12/25 06:45:49;;;;;;;0.55;0.40;;;22.70;49.70;;;;;;5115770;28;20057;-39
2023/12/25 06:48:16;;;;;;;1.00;0.63;;;22.70;49.70;;;;;;5112528;28;20023;-39
2023/12/25 06:50:42;;;;;;;0.63;0.50;;;22.60;49.90;;;;;;5112622;28;20788;-39
2023/12/25 06:53:08;;;;;;;1.27;0.60;;;22.60;49.80;;;;;;5114234;28;20039;-39
2023/12/25 06:55:34;;;;;;;0.88;0.40;;;22.60;49.80;;;;;;5112985;28;20032;-39
2023/12/25 06:58:01;;;;;;;1.20;0.50;;;22.60;49.90;;;;;;5117781;28;20035;-39
2023/12/25 07:00:27;;;;;;;1.33;0.73;;;22.60;50.00;;;;;;5115296;28;20117;-39
2023/12/25 07:02:53;;;;;;;1.10;0.50;;;22.60;50.00;;;;;;5114024;28;20277;-39
2023/12/25 07:05:19;;;;;;;0.52;0.40;;;22.60;50.00;;;;;;5114943;28;20036;-39
2023/12/25 07:07:46;;;;;;;0.30;0.30;;;22.60;50.00;;;;;;5115388;28;20105;-39
2023/12/25 07:10:12;;;;;;;1.00;0.50;;;22.60;50.00;;;;;;5112019;28;20024;-39
2023/12/25 07:12:39;;;;;;;1.77;0.50;;;22.60;50.00;;;;;;5110801;28;20243;-39
2023/12/25 07:15:06;;;;;;;1.63;0.60;;;22.60;50.20;;;;;;5115208;28;20115;-39
2023/12/25 07:17:32;;;;;;;1.27;0.68;;;22.60;50.20;;;;;;5111414;28;20039;-40
2023/12/25 07:19:58;;;;;;;1.05;0.55;;;22.50;50.20;;;;;;5112238;28;20036;-39
2023/12/25 07:22:25;;;;;;;0.70;0.40;;;22.60;50.10;;;;;;5118184;28;20055;-39
2023/12/25 07:24:51;;;;;;;0.77;0.47;;;22.70;50.10;;;;;;5114694;28;20054;-40
2023/12/25 07:27:17;;;;;;;1.00;0.47;;;22.70;49.70;;;;;;5114125;28;20020;-39
2023/12/25 07:29:43;;;;;;;1.27;0.50;;;22.70;49.50;;;;;;5114772;27;20027;-39
2023/12/25 07:32:10;;;;;;;1.30;0.60;;;22.70;49.50;;;;;;5112287;28;20050;-39
2023/12/25 07:34:36;;;;;;;;;;;22.70;49.90;;;;;;5111139;28;20042;-39
2023/12/25 07:37:03;;;;;;;0.80;0.43;;;22.70;50.00;;;;;;5110973;28;19916;-39
2023/12/25 07:39:29;;;;;;;1.35;0.50;;;22.60;50.00;;;;;;5111989;27;20031;-38
2023/12/25 07:41:55;;;;;;;0.98;0.47;;;22.60;50.00;;;;;;5109315;28;20039;-39
2023/12/25 07:44:22;;;;;;;1.03;0.47;;;22.60;50.10;;;;;;5110682;28;20100;-41
2023/12/25 07:46:48;;;;;;;0.80;0.50;;;22.60;50.10;;;;;;5112522;27;20039;-38
2023/12/25 07:49:14;;;;;;;0.70;0.40;;;22.50;50.30;;;;;;5111443;28;20115;-38
2023/12/25 07:51:40;;;;;;;1.33;0.55;;;22.60;50.20;;;;;;5109467;28;20027;-38
2023/12/25 07:54:07;;;;;;;1.13;0.50;;;22.60;50.20;;;;;;5115760;27;20028;-39
2023/12/25 07:56:33;;;;;;;1.58;0.50;;;22.60;50.20;;;;;;5113517;28;20045;-39
2023/12/25 07:59:00;;;;;;;1.33;0.40;;;22.60;50.30;;;;;;5110448;28;20043;-39
2023/12/25 08:01:26;;;;;;;1.48;0.60;;;22.60;50.30;;;;;;5093930;28;20272;-39
2023/12/25 08:03:52;;;;;;;1.52;0.43;;;22.50;50.40;;;;;;5109408;28;20483;-39
2023/12/25 08:06:18;;;;;;;1.48;0.70;;;22.60;50.50;;;;;;5104799;28;20035;-39
2023/12/25 08:08:47;;;;;;;0.65;0.40;;;22.50;50.30;;;;;;5112967;28;20045;-39
2023/12/25 08:11:14;;;;;;;1.08;0.50;;;22.60;50.30;;;;;;5109271;28;20045;-39
2023/12/25 08:13:40;;;;;;;0.57;0.40;;;22.70;50.50;;;;;;5112257;28;20031;-39
2023/12/25 08:16:06;;;;;;;1.13;0.40;;;22.70;50.10;;;;;;5109446;27;20092;-39
2023/12/25 08:18:32;;;;;;;1.42;0.50;;;22.70;49.80;;;;;;5115338;27;20064;-40
2023/12/25 08:20:59;;;;;;;0.55;0.50;;;22.70;49.70;;;;;;5109658;28;20043;-39
2023/12/25 08:23:25;;;;;;;1.08;0.55;;;22.70;50.10;;;;;;5115958;28;20024;-39
2023/12/25 08:25:51;;;;;;;1.02;0.55;;;22.70;50.20;;;;;;5108062;28;20040;-39
2023/12/25 08:28:18;;;;;;;1.50;0.45;;;22.70;50.40;;;;;;5109661;28;20032;-39
2023/12/25 08:30:44;;;;;;;0.80;0.50;;;22.60;50.40;;;;;;5112877;28;20057;-38
2023/12/25 08:33:10;;;;;;;0.93;0.50;;;22.60;50.50;;;;;;5112040;27;20035;-39
2023/12/25 08:35:36;;;;;;;1.38;0.60;;;22.60;50.50;;;;;;5117222;28;20042;-38
2023/12/25 08:38:03;;;;;;;0.93;0.40;;;22.60;50.30;;;;;;5119875;28;20031;-39
2023/12/25 08:40:29;;;;;;;1.15;0.40;;;22.60;50.40;;;;;;5099240;28;20036;-39
2023/12/25 08:42:55;;;;;;;0.73;0.50;;;22.60;50.40;;;;;;5120713;28;20669;-39
2023/12/25 08:45:21;;;;;;;0.63;0.40;;;22.70;50.30;;;;;;5119031;28;20065;-39
2023/12/25 08:47:51;;;;;;;1.40;0.55;;;22.70;50.10;;;;;;5120366;28;20568;-44
2023/12/25 08:50:18;;;;;;;0.98;0.57;;;22.60;50.30;;;;;;5118096;28;20105;-39
2023/12/25 08:52:44;;;;;;;0.80;0.50;;;22.60;50.30;;;;;;5120016;28;20055;-39
2023/12/25 08:55:10;;;;;;;1.30;0.60;;;22.60;50.30;;;;;;5118351;28;20510;-39
2023/12/25 08:57:36;;;;;;;2.25;0.55;;;22.60;50.60;;;;;;5114684;28;20509;-39
2023/12/25 09:00:07;;;;;;;2.97;0.53;;;22.60;50.50;;;;;;5115789;28;20039;-39
2023/12/25 09:02:33;;;;;;;1.25;0.52;;;22.60;50.30;;;;;;5095681;28;20276;-38
2023/12/25 09:05:00;;;;;;;0.77;0.30;;;22.80;50.50;;;;;;5115819;28;20020;-39
2023/12/25 09:07:26;;;;;;;1.13;0.50;;;22.80;50.30;;;;;;5118157;28;20091;-38
2023/12/25 09:09:52;;;;;;;0.82;0.40;;;22.80;49.90;;;;;;5116145;28;20091;-38
2023/12/25 09:12:18;;;;;;;1.25;0.50;;;22.80;49.90;;;;;;5117334;28;20036;-38
2023/12/25 09:14:46;;;;;;;1.25;0.60;;;22.70;50.10;;;;;;5118313;28;20365;-38
2023/12/25 09:17:12;;;;;;;0.93;0.68;;;22.70;50.20;;;;;;5117696;28;20020;-38
2023/12/25 09:19:38;;;;;;;1.00;0.47;;;22.70;50.30;;;;;;5119488;28;20032;-38
2023/12/25 09:22:04;;;;;;;1.05;0.50;;;22.70;50.30;;;;;;5123485;28;20023;-38
2023/12/25 09:24:30;;;;;;;1.05;0.40;;;22.60;50.50;;;;;;5123030;28;20495;-38
2023/12/25 09:26:57;;;;;;;1.92;0.55;;;22.60;50.30;;;;;;5122361;28;20699;-39
2023/12/25 09:29:23;;;;;;;0.80;0.52;;;22.70;50.40;;;;;;5120223;28;20033;-38
2023/12/25 09:31:49;;;;;;;0.80;0.40;;;22.70;50.40;;;;;;5121474;28;20028;-38
2023/12/25 09:34:15;;;;;;;0.95;0.52;;;22.70;50.10;;;;;;5122069;27;20031;-38
2023/12/25 09:36:41;;;;;;;1.77;0.50;;;22.70;50.20;;;;;;5122282;28;20034;-38
2023/12/25 09:39:07;;;;;;;1.05;0.70;;;22.70;50.30;;;;;;5122546;28;20042;-38
2023/12/25 09:41:34;;;;;;;1.80;0.45;;;22.70;50.30;;;;;;5118338;27;20023;-39
2023/12/25 09:44:00;;;;;;;;;;;22.70;50.50;;;;;;5126583;27;20024;-38
2023/12/25 09:46:27;;;;;;;0.93;0.40;;;22.60;50.40;;;;;;5129983;27;19911;-38
2023/12/25 09:48:54;;;;;;;1.25;0.50;;;22.60;50.60;;;;;;5101601;28;20047;-38
2023/12/25 09:51:20;;;;;;;;;;;22.70;50.40;;;;;;5103137;28;20038;-39
2023/12/25 09:53:46;;;;;;;0.90;0.38;;;22.80;50.60;;;;;;5119049;28;19911;-38
2023/12/25 09:56:13;;;;;;;0.80;0.40;;;22.80;50.10;;;;;;5121442;27;20027;-39
2023/12/25 09:58:39;;;;;;;1.57;0.50;;;22.80;50.00;;;;;;5118240;28;20043;-39
2023/12/25 10:01:05;;;;;;;0.65;0.30;;;22.80;50.10;;;;;;5092885;28;20053;-38
2023/12/25 10:03:35;;;;;;;1.52;0.60;;;22.70;50.20;;;;;;5114682;28;20810;-38
2023/12/25 10:06:02;;;;;;;1.15;0.60;;;22.70;50.30;;;;;;5097890;28;20083;-39
2023/12/25 10:08:29;;;;;;;1.63;0.47;;;22.70;50.40;;;;;;5118244;27;20020;-39
2023/12/25 10:10:55;;;;;;;1.08;0.40;;;22.70;50.50;;;;;;5114752;28;20933;-39
2023/12/25 10:13:24;;;;;;;1.10;0.40;;;22.60;50.50;;;;;;5125355;27;20024;-39
2023/12/25 10:15:50;;;;;;;1.33;0.40;;;22.60;50.60;;;;;;5113759;28;20063;-38
2023/12/25 10:18:17;;;;;;;1.15;0.50;;;22.70;50.60;;;;;;5113964;28;20032;-39
2023/12/25 10:20:56;;;;;;;0.65;0.45;;;22.70;50.70;;;;;;5088813;28;20742;-39
2023/12/25 10:23:31;;;;;;;0.85;0.40;;;22.70;50.50;;;;;;5098559;28;20019;-38
2023/12/25 10:26:02;;;;;;;1.15;0.40;;;22.70;50.20;;;;;;5107378;28;20039;-38
2023/12/25 10:28:29;;;;;;;1.05;0.60;;;22.70;50.40;;;;;;5115026;28;20024;-38
2023/12/25 10:31:02;;;;;;;;;;;22.70;50.50;;;;;;5108940;28;20054;-38
2023/12/25 10:33:29;;;;;;;1.40;0.50;;;22.70;50.50;;;;;;5107314;28;19928;-38
2023/12/25 10:36:06;;;;;;;1.00;0.50;;;22.60;50.70;;;;;;5110048;28;20036;-38
2023/12/25 10:38:35;;;;;;;1.00;0.45;;;22.60;50.70;;;;;;5117575;27;20115;-38
2023/12/25 10:41:35;;;;;;;0.57;0.35;;;22.70;50.80;;;;;;5118599;28;20081;-38
2023/12/25 10:44:02;;;;;;;1.20;0.40;;;22.80;50.70;;;;;;5096536;28;20040;-38
2023/12/25 10:46:34;;;;;;;0.90;0.50;;;22.80;50.20;;;;;;5113786;28;20035;-38
2023/12/25 10:49:01;;;;;;;1.27;0.60;;;22.80;50.10;;;;;;5113961;28;20044;-38
2023/12/25 10:51:28;;;;;;;1.77;0.60;;;22.70;50.30;;;;;;5114637;27;20590;-37
2023/12/25 10:53:58;;;;;;;1.15;0.60;;;22.70;50.60;;;;;;5107396;28;20036;-38
2023/12/25 10:56:24;;;;;;;1.58;0.52;;;22.70;50.70;;;;;;5106324;28;20063;-38
2023/12/25 10:58:50;;;;;;;0.82;0.50;;;22.70;50.70;;;;;;5090209;28;20032;-38
2023/12/25 11:01:23;;;;;;;1.47;0.50;;;22.60;50.70;;;;;;5115860;28;20031;-38
2023/12/25 11:03:50;;;;;;;1.25;0.52;;;22.60;50.80;;;;;;5093151;28;20035;-39
2023/12/25 11:06:16;;;;;;;1.35;0.45;;;22.60;50.70;;;;;;5112385;28;20062;-38
2023/12/25 11:08:43;;;;;;;1.00;0.30;;;22.60;50.90;;;;;;5114150;28;20024;-39
2023/12/25 11:11:13;;;;;;;0.88;0.28;;;22.70;50.80;;;;;;5119266;28;20042;-38
2023/12/25 11:13:42;;;;;;;1.10;0.40;;;22.70;50.90;;;;;;5108780;28;20019;-39
2023/12/25 11:16:08;;;;;;;0.95;0.60;;;22.70;51.00;;;;;;5110957;28;20039;-38
2023/12/25 11:18:37;;;;;;;0.73;0.50;;;22.60;51.00;;;;;;5096409;28;20027;-39
2023/12/25 11:21:07;;;;;;;0.47;0.40;;;22.60;51.10;;;;;;5101705;28;20039;-39
2023/12/25 11:23:38;;;;;;;0.93;0.47;;;22.60;51.10;;;;;;5113470;28;20032;-38
2023/12/25 11:26:06;;;;;;;1.85;0.63;;;22.60;51.00;;;;;;5113233;28;20070;-39
2023/12/25 11:28:37;;;;;;;1.23;0.52;;;22.60;51.20;;;;;;5113075;27;20480;-42
2023/12/25 11:31:04;;;;;;;1.25;0.40;;;22.60;50.90;;;;;;5100200;28;20036;-40
2023/12/25 11:33:41;;;;;;;0.95;0.40;;;22.70;51.00;;;;;;5119281;28;20035;-39
2023/12/25 11:36:13;;;;;;;0.88;0.50;;;22.70;50.70;;;;;;5108779;28;20050;-39
2023/12/25 11:38:54;;;;;;;1.25;0.60;;;22.70;50.70;;;;;;5113084;28;20028;-39
2023/12/25 11:41:20;;;;;;;1.30;0.47;;;22.70;50.70;;;;;;5105054;28;20035;-39
2023/12/25 11:43:49;;;;;;;0.88;0.50;;;22.70;51.00;;;;;;5112666;28;20053;-38
2023/12/25 11:46:21;;;;;;;0.88;0.40;;;22.60;51.10;;;;;;5112848;28;20057;-39
2023/12/25 11:48:47;;;;;;;1.30;0.50;;;22.60;51.10;;;;;;5119453;28;20035;-39
2023/12/25 11:51:29;;;;;;;1.13;0.50;;;22.60;51.30;;;;;;5111735;27;20058;-39
2023/12/25 11:54:02;;;;;;;1.98;0.40;;;22.60;51.40;;;;;;5104532;28;20032;-39
2023/12/25 11:56:28;;;;;;;1.33;0.50;;;22.60;51.30;;;;;;5118765;28;20031;-38
2023/12/25 11:58:55;;;;;;;2.00;0.50;;;22.60;51.20;;;;;;5112010;28;20044;-37
2023/12/25 12:01:22;;;;;;;1.13;0.50;;;22.60;51.30;;;;;;5095095;28;20331;-37
2023/12/25 12:03:48;;;;;;;;;;;22.60;51.50;;;;;;5117174;28;20031;-37
2023/12/25 12:06:15;;;;;;;1.15;0.50;;;22.60;51.60;;;;;;5119456;28;19908;-40
2023/12/25 12:08:42;;;;;;;1.13;0.50;;;22.60;51.70;;;;;;5113397;28;20694;-37
2023/12/25 12:11:09;;;;;;;1.23;0.55;;;22.60;51.60;;;;;;5118194;27;20031;-37
2023/12/25 12:13:36;;;;;;;0.88;0.40;;;22.50;51.50;;;;;;5112783;28;20047;-38
2023/12/25 12:16:03;;;;;;;1.67;0.40;;;22.50;51.50;;;;;;5111711;28;20040;-37
2023/12/25 12:18:29;;;;;;;0.70;0.40;;;22.50;51.50;;;;;;5112021;28;20036;-37
2023/12/25 12:20:56;;;;;;;0.70;0.40;;;22.60;51.70;;;;;;5112291;28;20043;-38
2023/12/25 12:23:22;;;;;;;0.40;0.30;;;22.70;51.10;;;;;;5087407;28;20032;-38
2023/12/25 12:25:48;;;;;;;1.25;0.50;;;22.70;50.80;;;;;;5114417;28;20058;-38
2023/12/25 12:28:18;;;;;;;1.83;0.45;;;22.70;50.80;;;;;;5112518;28;20028;-38
2023/12/25 12:30:44;;;;;;;0.60;0.35;;;22.60;51.30;;;;;;5112435;28;20043;-38
2023/12/25 12:33:11;;;;;;;0.82;0.30;;;22.60;51.50;;;;;;5091175;28;20032;-38
2023/12/25 12:35:37;;;;;;;0.47;0.38;;;22.60;51.50;;;;;;5091730;28;20040;-38
2023/12/25 12:38:04;;;;;;;0.85;0.43;;;22.60;51.40;;;;;;5117637;28;20032;-38
2023/12/25 12:40:30;;;;;;;1.20;0.40;;;22.60;51.30;;;;;;5108673;28;20036;-39
2023/12/25 12:42:56;;;;;;;1.95;0.63;;;22.50;51.40;;;;;;5111483;28;20042;-39
2023/12/25 12:45:22;;;;;;;1.05;0.50;;;22.60;51.70;;;;;;5114758;28;20679;-38